createdAt,value
2018-09-19T00:00:38.027Z,96.75
2018-09-19T00:01:48.191Z,96.22
2018-09-19T00:02:58.335Z,96.37
2018-09-19T00:04:08.478Z,96.22
2018-09-19T00:05:18.640Z,96.32
2018-09-19T00:06:28.573Z,96.99
2018-09-19T00:07:38.753Z,96.37
2018-09-19T00:08:48.898Z,96.22
2018-09-19T00:09:58.514Z,96.7
2018-09-19T00:11:08.657Z,97.09
2018-09-19T00:12:18.571Z,96.18
2018-09-19T00:13:28.719Z,96.42
2018-09-19T00:14:38.876Z,96.94
2018-09-19T00:15:48.516Z,96.75
2018-09-19T00:16:58.419Z,96.03
2018-09-19T00:18:08.584Z,96.42
2018-09-19T00:19:18.753Z,96.22
2018-09-19T00:20:28.905Z,95.65
2018-09-19T00:21:39.055Z,95.36
2018-09-19T00:22:49.129Z,95.94
2018-09-19T00:23:59.309Z,95.75
2018-09-19T00:25:09.485Z,95.46
2018-09-19T00:26:19.631Z,95.26
2018-09-19T00:27:29.778Z,95.41
2018-09-19T00:28:39.948Z,95.21
2018-09-19T00:29:50.149Z,94.69
2018-09-19T00:31:00.356Z,94.88
2018-09-19T00:32:10.504Z,94.59
2018-09-19T00:33:20.670Z,94.69
2018-09-19T00:34:30.873Z,94.4
2018-09-19T00:35:40.801Z,94.31
2018-09-19T00:36:50.942Z,94.02
2018-09-19T00:38:00.814Z,93.82
2018-09-19T00:39:10.974Z,93.92
2018-09-19T00:40:21.131Z,94.49
2018-09-19T00:41:31.333Z,93.92
2018-09-19T00:42:41.266Z,94.12
2018-09-19T00:43:51.409Z,94.4
2018-09-19T00:45:01.567Z,94.21
2018-09-19T00:46:11.710Z,94.12
2018-09-19T00:47:21.914Z,94.02
2018-09-19T00:48:32.094Z,93.92
2018-09-19T00:49:41.975Z,94.12
2018-09-19T00:50:52.175Z,93.73
2018-09-19T00:52:02.369Z,93.92
2018-09-19T00:53:12.513Z,94.02
2018-09-19T00:54:22.665Z,94.31
2018-09-19T00:55:32.823Z,93.82
2018-09-19T00:56:42.994Z,94.31
2018-09-19T00:57:52.871Z,94.21
2018-09-19T00:59:03.065Z,93.54
2018-09-19T01:00:13.212Z,94.02
2018-09-19T01:01:23.084Z,94.21
2018-09-19T01:02:33.248Z,94.12
2018-09-19T01:03:43.439Z,93.82
2018-09-19T01:04:53.635Z,94.12
2018-09-19T01:06:03.824Z,94.69
2018-09-19T01:07:13.740Z,94.69
2018-09-19T01:08:23.885Z,94.02
2018-09-19T01:09:33.761Z,94.79
2018-09-19T01:10:43.961Z,94.49
2018-09-19T01:11:54.101Z,94.4
2018-09-19T01:13:04.263Z,94.69
2018-09-19T01:14:14.403Z,94.59
2018-09-19T01:15:24.565Z,95.17
2018-09-19T01:16:34.798Z,95.21
2018-09-19T01:17:44.671Z,95.79
2018-09-19T01:18:54.896Z,96.18
2018-09-19T01:20:05.058Z,96.47
2018-09-19T01:21:15.206Z,96.94
2018-09-19T01:22:25.514Z,96.75
2018-09-19T01:23:35.649Z,96.47
2018-09-19T01:24:45.791Z,96.75
2018-09-19T01:25:55.944Z,96.75
2018-09-19T01:27:06.095Z,96.75
2018-09-19T01:28:16.295Z,96.75
2018-09-19T01:29:26.222Z,96.75
2018-09-19T01:30:36.416Z,97.04
2018-09-19T01:31:46.292Z,96.85
2018-09-19T01:32:56.531Z,97.14
2018-09-19T01:34:06.708Z,97.23
2018-09-19T01:35:16.856Z,97.33
2018-09-19T01:36:27.021Z,97.33
2018-09-19T01:37:37.172Z,97.52
2018-09-19T01:38:47.352Z,97.52
2018-09-19T01:39:57.588Z,97.81
2018-09-19T01:41:07.471Z,96.94
2018-09-19T01:42:17.696Z,97.14
2018-09-19T01:43:27.847Z,97.23
2018-09-19T01:44:38.039Z,97.23
2018-09-19T01:45:48.248Z,97.23
2018-09-19T01:46:57.855Z,97.42
2018-09-19T01:48:08.010Z,97.14
2018-09-19T01:49:18.166Z,97.61
2018-09-19T01:50:28.338Z,97.52
2018-09-19T01:51:38.489Z,97.61
2018-09-19T01:52:48.648Z,97.52
2018-09-19T01:53:58.800Z,98
2018-09-19T01:55:08.673Z,97.33
2018-09-19T01:56:18.816Z,98.1
2018-09-19T01:57:28.963Z,97.33
2018-09-19T01:58:39.119Z,97.9
2018-09-19T01:59:49.291Z,97.81
2018-09-19T02:00:59.444Z,97.61
2018-09-19T02:02:09.593Z,97.71
2018-09-19T02:03:19.515Z,97.71
2018-09-19T02:04:29.665Z,98.1
2018-09-19T02:05:39.818Z,97.61
2018-09-19T02:06:49.968Z,98.05
2018-09-19T02:08:00.113Z,97.71
2018-09-19T02:09:10.263Z,98.57
2018-09-19T02:10:20.415Z,98.48
2018-09-19T02:11:30.556Z,97.9
2018-09-19T02:12:40.712Z,98
2018-09-19T02:13:50.867Z,98.05
2018-09-19T02:15:01.641Z,98.1
2018-09-19T02:16:11.799Z,97.9
2018-09-19T02:17:22.000Z,97.9
2018-09-19T02:18:31.911Z,98.19
2018-09-19T02:19:42.130Z,98.19
2018-09-19T02:20:52.111Z,97.9
2018-09-19T02:22:02.043Z,97.52
2018-09-19T02:23:12.199Z,97.28
2018-09-19T02:24:22.361Z,96.89
2018-09-19T02:25:32.294Z,96.99
2018-09-19T02:26:42.497Z,96.94
2018-09-19T02:27:52.638Z,97.18
2018-09-19T02:29:02.798Z,97.23
2018-09-19T02:30:12.949Z,97.18
2018-09-19T02:31:23.119Z,96.99
2018-09-19T02:32:33.415Z,96.89
2018-09-19T02:33:43.577Z,97.14
2018-09-19T02:34:53.745Z,97.09
2018-09-19T02:36:03.635Z,96.51
2018-09-19T02:37:13.801Z,96.89
2018-09-19T02:38:24.009Z,96.27
2018-09-19T02:39:34.196Z,95.98
2018-09-19T02:40:44.389Z,95.6
2018-09-19T02:41:54.267Z,96.18
2018-09-19T02:43:04.434Z,96.32
2018-09-19T02:44:14.350Z,96.22
2018-09-19T02:45:24.535Z,96.18
2018-09-19T02:46:34.707Z,96.47
2018-09-19T02:47:44.857Z,96.27
2018-09-19T02:48:55.002Z,96.7
2018-09-19T02:50:04.905Z,96.7
2018-09-19T02:51:15.052Z,96.32
2018-09-19T02:52:25.226Z,96.94
2018-09-19T02:53:34.841Z,96.89
2018-09-19T02:54:45.020Z,96.7
2018-09-19T02:55:55.450Z,96.7
2018-09-19T02:57:05.587Z,96.7
2018-09-19T02:58:15.815Z,96.8
2018-09-19T02:59:25.977Z,96.8
2018-09-19T03:00:36.265Z,96.89
2018-09-19T03:01:46.471Z,96.32
2018-09-19T03:02:56.628Z,96.51
2018-09-19T03:04:06.765Z,96.89
2018-09-19T03:05:16.931Z,96.99
2018-09-19T03:06:27.094Z,96.61
2018-09-19T03:07:37.294Z,96.61
2018-09-19T03:08:47.455Z,96.8
2018-09-19T03:09:57.602Z,96.8
2018-09-19T03:11:07.574Z,96.99
2018-09-19T03:12:17.721Z,97.18
2018-09-19T03:13:27.875Z,97.04
2018-09-19T03:14:38.032Z,97.47
2018-09-19T03:15:48.199Z,97.28
2018-09-19T03:16:58.456Z,97.9
2018-09-19T03:18:08.545Z,97.8
2018-09-19T03:19:18.715Z,97.8
2018-09-19T03:20:28.858Z,98.19
2018-09-19T03:21:39.016Z,98
2018-09-19T03:22:49.185Z,98.1
2018-09-19T03:23:59.100Z,97.9
2018-09-19T03:25:09.310Z,98.28
2018-09-19T03:26:19.196Z,98.19
2018-09-19T03:27:29.353Z,98.28
2018-09-19T03:28:38.960Z,98.47
2018-09-19T03:29:48.831Z,98.1
2018-09-19T03:30:58.777Z,97.71
2018-09-19T03:32:08.956Z,98.38
2018-09-19T03:33:19.140Z,97.8
2018-09-19T03:34:29.293Z,97.8
2018-09-19T03:35:39.483Z,97.8
2018-09-19T03:36:49.690Z,97.71
2018-09-19T03:37:59.556Z,97.8
2018-09-19T03:39:09.705Z,97.9
2018-09-19T03:40:19.959Z,97.8
2018-09-19T03:41:30.119Z,97.8
2018-09-19T03:42:40.326Z,97.52
2018-09-19T03:43:50.193Z,97.9
2018-09-19T03:45:00.337Z,98.1
2018-09-19T03:46:10.480Z,98
2018-09-19T03:47:20.348Z,98.19
2018-09-19T03:48:30.560Z,98.47
2018-09-19T03:49:40.726Z,98.38
2018-09-19T03:50:50.883Z,98.28
2018-09-19T03:52:01.043Z,98.28
2018-09-19T03:53:11.192Z,98
2018-09-19T03:54:21.148Z,98.14
2018-09-19T03:55:31.363Z,97.9
2018-09-19T03:56:41.521Z,98.19
2018-09-19T03:57:51.672Z,98.33
2018-09-19T03:59:01.926Z,98
2018-09-19T04:00:11.869Z,98.14
2018-09-19T04:01:21.746Z,97.75
2018-09-19T04:02:31.906Z,97.95
2018-09-19T04:03:42.053Z,98.24
2018-09-19T04:04:52.204Z,98.33
2018-09-19T04:06:02.404Z,97.75
2018-09-19T04:07:12.566Z,97.56
2018-09-19T04:08:22.733Z,97.47
2018-09-19T04:09:32.895Z,97.47
2018-09-19T04:10:43.065Z,97.28
2018-09-19T04:11:53.288Z,97.47
2018-09-19T04:13:03.452Z,97.09
2018-09-19T04:14:13.616Z,96.99
2018-09-19T04:15:23.798Z,96.61
2018-09-19T04:16:33.700Z,96.61
2018-09-19T04:17:44.041Z,96.51
2018-09-19T04:18:54.485Z,96.22
2018-09-19T04:20:03.538Z,96.42
2018-09-19T04:21:13.700Z,96.89
2018-09-19T04:22:23.897Z,96.61
2018-09-19T04:23:34.042Z,96.13
2018-09-19T04:24:44.189Z,95.84
2018-09-19T04:25:54.338Z,95.94
2018-09-19T04:27:04.490Z,96.22
2018-09-19T04:28:14.726Z,95.94
2018-09-19T04:29:24.694Z,95.75
2018-09-19T04:30:34.842Z,95.27
2018-09-19T04:31:45.034Z,95.17
2018-09-19T04:32:55.235Z,95.17
2018-09-19T04:34:05.405Z,95.07
2018-09-19T04:35:15.597Z,95.27
2018-09-19T04:36:25.741Z,94.79
2018-09-19T04:37:35.888Z,94.79
2018-09-19T04:38:45.761Z,94.31
2018-09-19T04:39:55.906Z,94.5
2018-09-19T04:41:06.053Z,94.02
2018-09-19T04:42:15.929Z,94.4
2018-09-19T04:43:26.097Z,94.4
2018-09-19T04:44:35.982Z,93.83
2018-09-19T04:45:46.132Z,93.64
2018-09-19T04:46:56.343Z,94.21
2018-09-19T04:48:06.519Z,94.21
2018-09-19T04:49:16.689Z,93.93
2018-09-19T04:50:26.610Z,93.83
2018-09-19T04:51:36.961Z,93.93
2018-09-19T04:52:47.696Z,93.83
2018-09-19T04:53:57.561Z,93.83
2018-09-19T04:55:07.747Z,93.93
2018-09-19T04:56:17.900Z,93.93
2018-09-19T04:57:28.099Z,93.83
2018-09-19T04:58:38.288Z,93.83
2018-09-19T04:59:48.431Z,94.12
2018-09-19T05:00:58.588Z,94.4
2018-09-19T05:02:08.762Z,94.12
2018-09-19T05:03:18.907Z,94.31
2018-09-19T05:04:29.116Z,94.4
2018-09-19T05:05:39.328Z,94.02
2018-09-19T05:06:49.858Z,94.31
2018-09-19T05:08:00.016Z,93.64
2018-09-19T05:09:09.893Z,94.02
2018-09-19T05:10:20.121Z,93.83
2018-09-19T05:11:30.516Z,93.93
2018-09-19T05:12:40.624Z,94.02
2018-09-19T05:13:50.769Z,93.64
2018-09-19T05:15:00.634Z,92.78
2018-09-19T05:16:10.556Z,93.35
2018-09-19T05:17:20.425Z,93.54
2018-09-19T05:18:30.564Z,93.07
2018-09-19T05:19:40.705Z,93.07
2018-09-19T05:20:50.854Z,93.26
2018-09-19T05:22:00.993Z,93.16
2018-09-19T05:23:11.147Z,93.35
2018-09-19T05:24:21.289Z,93.45
2018-09-19T05:25:31.207Z,93.35
2018-09-19T05:26:41.353Z,93.07
2018-09-19T05:27:51.552Z,93.07
2018-09-19T05:29:01.690Z,92.78
2018-09-19T05:30:11.602Z,92.3
2018-09-19T05:31:21.762Z,92.21
2018-09-19T05:32:31.768Z,92.11
2018-09-19T05:33:42.020Z,92.3
2018-09-19T05:34:52.171Z,91.53
2018-09-19T05:36:01.496Z,91.92
2018-09-19T05:37:11.645Z,90.96
2018-09-19T05:38:21.786Z,91.53
2018-09-19T05:39:31.707Z,91.34
2018-09-19T05:40:41.572Z,90.19
2018-09-19T05:41:51.725Z,90.19
2018-09-19T05:43:01.867Z,88.95
2018-09-19T05:44:12.016Z,89.33
2018-09-19T05:45:22.157Z,88.95
2018-09-19T05:46:32.096Z,89.52
2018-09-19T05:47:42.668Z,88.47
2018-09-19T05:48:52.836Z,88.18
2018-09-19T05:50:02.978Z,88.13
2018-09-19T05:51:12.914Z,88.28
2018-09-19T05:52:23.063Z,87.32
2018-09-19T05:53:33.216Z,87.27
2018-09-19T05:54:43.543Z,87.8
2018-09-19T05:55:53.690Z,87.37
2018-09-19T05:57:03.886Z,87.08
2018-09-19T05:58:13.777Z,86.6
2018-09-19T05:59:23.660Z,87.46
2018-09-19T06:00:33.826Z,86.31
2018-09-19T06:01:43.979Z,86.88
2018-09-19T06:02:54.172Z,87.17
2018-09-19T06:04:04.039Z,85.93
2018-09-19T06:05:13.909Z,85.54
2018-09-19T06:06:24.059Z,86.21
2018-09-19T06:07:33.953Z,84.97
2018-09-19T06:08:44.141Z,84.2
2018-09-19T06:09:54.027Z,84.11
2018-09-19T06:11:03.893Z,83.92
2018-09-19T06:12:14.055Z,83.92
2018-09-19T06:13:24.208Z,83.92
2018-09-19T06:14:34.414Z,83.72
2018-09-19T06:15:44.562Z,83.92
2018-09-19T06:16:54.699Z,83.05
2018-09-19T06:18:04.856Z,83.25
2018-09-19T06:19:15.001Z,82.19
2018-09-19T06:20:25.203Z,82.29
2018-09-19T06:21:35.362Z,82.57
2018-09-19T06:22:45.511Z,81.81
2018-09-19T06:23:55.659Z,82.38
2018-09-19T06:25:05.526Z,82.57
2018-09-19T06:26:15.725Z,82.76
2018-09-19T06:27:25.590Z,80.47
2018-09-19T06:28:35.738Z,81.13
2018-09-19T06:29:45.895Z,80.56
2018-09-19T06:30:56.042Z,80.66
2018-09-19T06:32:06.241Z,80.37
2018-09-19T06:33:16.608Z,79.51
2018-09-19T06:34:26.676Z,79.8
2018-09-19T06:35:36.865Z,79.89
2018-09-19T06:36:47.016Z,78.74
2018-09-19T06:37:57.048Z,78.07
2018-09-19T06:39:06.917Z,78.45
2018-09-19T06:40:17.318Z,78.07
2018-09-19T06:41:27.440Z,77.25
2018-09-19T06:42:37.758Z,77.63
2018-09-19T06:43:54.141Z,77.73
2018-09-19T06:45:04.570Z,77.82
2018-09-19T06:46:14.993Z,76.96
2018-09-19T06:47:25.350Z,76.57
2018-09-19T06:48:35.503Z,75.81
2018-09-19T06:49:45.762Z,75.9
2018-09-19T06:50:55.633Z,76.06
2018-09-19T06:52:06.014Z,76.29
2018-09-19T06:53:16.045Z,75.68
2018-09-19T06:54:26.206Z,75.29
2018-09-19T06:55:36.410Z,76.44
2018-09-19T06:56:46.561Z,75.87
2018-09-19T06:57:56.443Z,76.25
2018-09-19T06:59:06.594Z,76.44
2018-09-19T07:00:16.742Z,76.54
2018-09-19T07:01:27.120Z,76.92
2018-09-19T07:02:36.990Z,75.68
2018-09-19T07:03:46.866Z,76.44
2018-09-19T07:04:57.001Z,75.77
2018-09-19T07:06:07.202Z,75.96
2018-09-19T07:07:17.360Z,75.48
2018-09-19T07:08:27.498Z,75.48
2018-09-19T07:09:37.635Z,76.06
2018-09-19T07:10:47.359Z,75.87
2018-09-19T07:11:57.523Z,75.77
2018-09-19T07:13:07.509Z,75.96
2018-09-19T07:14:17.697Z,76.64
2018-09-19T07:15:27.852Z,76.15
2018-09-19T07:16:38.171Z,75.68
2018-09-19T07:17:48.321Z,75.81
2018-09-19T07:18:58.382Z,75.62
2018-09-19T07:20:08.711Z,75.81
2018-09-19T07:21:18.580Z,75.81
2018-09-19T07:22:28.733Z,74.57
2018-09-19T07:23:38.958Z,75.33
2018-09-19T07:24:49.417Z,75.23
2018-09-19T07:25:59.599Z,75.23
2018-09-19T07:27:09.801Z,75.33
2018-09-19T07:28:19.941Z,75.33
2018-09-19T07:29:30.095Z,74.85
2018-09-19T07:30:40.294Z,74.76
2018-09-19T07:31:50.451Z,74.31
2018-09-19T07:33:00.639Z,73.65
2018-09-19T07:34:10.783Z,73.74
2018-09-19T07:35:20.646Z,72.59
2018-09-19T07:36:30.572Z,73.16
2018-09-19T07:37:40.771Z,72.97
2018-09-19T07:38:50.634Z,72.88
2018-09-19T07:40:00.778Z,73
2018-09-19T07:41:10.730Z,72.14
2018-09-19T07:42:20.406Z,72.72
2018-09-19T07:43:30.238Z,72.53
2018-09-19T07:44:40.109Z,71.76
2018-09-19T07:45:50.279Z,71.47
2018-09-19T07:47:00.433Z,70.9
2018-09-19T07:48:10.592Z,71.47
2018-09-19T07:49:20.797Z,71.19
2018-09-19T07:50:31.056Z,71.57
2018-09-19T07:51:40.809Z,70.23
2018-09-19T07:52:50.966Z,70.13
2018-09-19T07:54:01.164Z,71.09
2018-09-19T07:55:11.412Z,70.32
2018-09-19T07:56:21.811Z,70.8
2018-09-19T07:57:31.962Z,71.09
2018-09-19T07:58:41.837Z,71.09
2018-09-19T07:59:51.777Z,70.8
2018-09-19T08:01:01.778Z,70.23
2018-09-19T08:02:12.440Z,70.42
2018-09-19T08:03:22.688Z,70.61
2018-09-19T08:04:32.560Z,71.19
2018-09-19T08:05:42.715Z,71.57
2018-09-19T08:06:52.923Z,71.19
2018-09-19T08:08:03.066Z,69.65
2018-09-19T08:09:13.472Z,69.74
2018-09-19T08:10:24.042Z,70.23
2018-09-19T08:11:34.249Z,71.09
2018-09-19T08:12:44.422Z,71.12
2018-09-19T08:13:54.295Z,70.36
2018-09-19T08:15:04.456Z,70.36
2018-09-19T08:16:14.644Z,70.93
2018-09-19T08:17:25.638Z,71.12
2018-09-19T08:18:35.795Z,71.03
2018-09-19T08:19:45.950Z,70.93
2018-09-19T08:20:56.089Z,73.24
2018-09-19T08:22:06.088Z,73.14
2018-09-19T08:23:16.230Z,72.66
2018-09-19T08:24:26.397Z,73.24
2018-09-19T08:25:36.588Z,73.14
2018-09-19T08:26:46.748Z,72.56
2018-09-19T08:27:56.899Z,73.62
2018-09-19T08:29:07.062Z,74.39
2018-09-19T08:30:17.210Z,74.68
2018-09-19T08:31:27.368Z,74.29
2018-09-19T08:32:37.524Z,74.29
2018-09-19T08:33:47.685Z,74.01
2018-09-19T08:34:57.613Z,74.58
2018-09-19T08:36:07.765Z,72.66
2018-09-19T08:37:17.921Z,73.58
2018-09-19T08:38:28.075Z,73.77
2018-09-19T08:39:38.227Z,74.48
2018-09-19T08:40:48.428Z,74.39
2018-09-19T08:41:58.583Z,73.91
2018-09-19T08:43:08.450Z,72.75
2018-09-19T08:44:18.596Z,72.95
2018-09-19T08:45:28.753Z,73.14
2018-09-19T08:46:38.905Z,73.91
2018-09-19T08:47:49.062Z,73.91
2018-09-19T08:48:59.214Z,74.96
2018-09-19T08:50:09.430Z,74.29
2018-09-19T08:51:19.583Z,74.19
2018-09-19T08:52:30.585Z,74.01
2018-09-19T08:53:40.732Z,74.77
2018-09-19T08:54:50.929Z,74.48
2018-09-19T08:56:01.085Z,74.39
2018-09-19T08:57:11.460Z,73.91
2018-09-19T08:58:21.779Z,74.39
2018-09-19T08:59:31.653Z,74.29
2018-09-19T09:00:41.525Z,73.72
2018-09-19T09:01:51.398Z,73.77
2018-09-19T09:03:01.545Z,73.39
2018-09-19T09:04:11.698Z,74.26
2018-09-19T09:05:21.988Z,73.49
2018-09-19T09:06:32.320Z,73.58
2018-09-19T09:07:42.471Z,73.39
2018-09-19T09:08:52.337Z,74.06
2018-09-19T09:10:02.592Z,73.72
2018-09-19T09:11:12.746Z,74.29
2018-09-19T09:12:23.129Z,73.62
2018-09-19T09:13:33.650Z,73.81
2018-09-19T09:14:43.809Z,74.01
2018-09-19T09:15:53.694Z,74.87
2018-09-19T09:17:03.847Z,74.35
2018-09-19T09:18:13.994Z,74.54
2018-09-19T09:19:24.142Z,74.44
2018-09-19T09:20:34.358Z,75.31
2018-09-19T09:21:44.232Z,76.07
2018-09-19T09:22:54.129Z,75.31
2018-09-19T09:24:04.317Z,74.73
2018-09-19T09:25:14.463Z,75.7
2018-09-19T09:26:24.614Z,76.4
2018-09-19T09:27:34.764Z,74.68
2018-09-19T09:28:44.653Z,73.62
2018-09-19T09:29:54.802Z,74.1
2018-09-19T09:31:05.125Z,74.19
2018-09-19T09:33:25.265Z,74.1
2018-09-19T09:34:35.416Z,72.75
2018-09-19T09:35:45.568Z,72.37
2018-09-19T09:36:55.703Z,72.56
2018-09-19T09:38:06.137Z,72.08
2018-09-19T09:39:16.303Z,73.14
2018-09-19T09:40:26.773Z,72.5
2018-09-19T09:41:37.014Z,71.16
2018-09-19T09:42:47.161Z,71.35
2018-09-19T09:43:57.310Z,71.35
2018-09-19T09:45:07.484Z,71.16
2018-09-19T09:46:17.418Z,70.58
2018-09-19T09:47:27.562Z,70.78
2018-09-19T09:48:37.745Z,70.87
2018-09-19T09:49:47.625Z,70.68
2018-09-19T09:50:57.777Z,70.2
2018-09-19T09:52:07.950Z,70.39
2018-09-19T09:53:18.229Z,71.64
2018-09-19T09:54:28.436Z,70.14
2018-09-19T09:55:38.315Z,71
2018-09-19T09:56:48.520Z,71.29
2018-09-19T09:57:58.661Z,70.81
2018-09-19T09:59:08.821Z,68.51
2018-09-19T10:00:19.025Z,68.79
2018-09-19T10:01:29.171Z,68.51
2018-09-19T10:02:39.099Z,68.41
2018-09-19T10:03:49.256Z,69.08
2018-09-19T10:04:59.122Z,69.46
2018-09-19T10:06:08.986Z,68.41
2018-09-19T10:07:19.187Z,69.08
2018-09-19T10:08:29.340Z,68.79
2018-09-19T10:09:39.570Z,69.27
2018-09-19T10:10:49.439Z,69.18
2018-09-19T10:11:59.325Z,69.75
2018-09-19T10:13:09.462Z,69.27
2018-09-19T10:14:19.331Z,68.6
2018-09-19T10:15:29.483Z,68.51
2018-09-19T10:16:39.633Z,68.02
2018-09-19T10:17:49.499Z,69.08
2018-09-19T10:18:59.366Z,70.14
2018-09-19T10:20:09.243Z,67.93
2018-09-19T10:21:19.407Z,68.79
2018-09-19T10:22:29.562Z,68.89
2018-09-19T10:23:39.698Z,68.6
2018-09-19T10:24:49.851Z,67.83
2018-09-19T10:25:59.727Z,68.31
2018-09-19T10:27:09.876Z,68.7
2018-09-19T10:28:20.015Z,67.93
2018-09-19T10:29:30.223Z,68.7
2018-09-19T10:30:40.616Z,68.31
2018-09-19T10:31:50.485Z,69.18
2018-09-19T10:33:00.350Z,67.45
2018-09-19T10:34:10.228Z,67.48
2018-09-19T10:35:20.519Z,66.97
2018-09-19T10:36:31.052Z,66.42
2018-09-19T10:37:41.196Z,67.25
2018-09-19T10:38:51.352Z,67.93
2018-09-19T10:40:01.500Z,66.71
2018-09-19T10:41:11.652Z,66.33
2018-09-19T10:42:21.875Z,66.71
2018-09-19T10:43:32.018Z,66
2018-09-19T10:44:42.193Z,67.64
2018-09-19T10:45:52.341Z,67.86
2018-09-19T10:47:02.204Z,65.84
2018-09-19T10:48:11.798Z,66.42
2018-09-19T10:49:22.084Z,67.1
2018-09-19T10:50:32.122Z,66.23
2018-09-19T10:51:42.258Z,66.71
2018-09-19T10:52:52.409Z,67.1
2018-09-19T10:54:02.272Z,65.56
2018-09-19T10:55:12.483Z,64.5
2018-09-19T10:56:22.352Z,64.79
2018-09-19T10:57:32.508Z,65.56
2018-09-19T10:58:42.382Z,64.53
2018-09-19T10:59:52.260Z,63.28
2018-09-19T11:01:02.448Z,64.15
2018-09-19T11:02:12.591Z,62.51
2018-09-19T11:03:22.735Z,62.45
2018-09-19T11:04:32.876Z,59.88
2018-09-19T11:05:43.022Z,60.55
2018-09-19T11:06:52.667Z,59.69
2018-09-19T11:08:02.547Z,59.23
2018-09-19T11:09:12.689Z,58.95
2018-09-19T11:10:22.833Z,59.04
2018-09-19T11:11:32.442Z,59.04
2018-09-19T11:12:42.595Z,58.59
2018-09-19T11:13:52.745Z,57.92
2018-09-19T11:15:02.893Z,58.01
2018-09-19T11:16:12.490Z,58.3
2018-09-19T11:17:22.364Z,58.59
2018-09-19T11:18:32.240Z,58.3
2018-09-19T11:19:42.109Z,57.72
2018-09-19T11:20:52.258Z,57.94
2018-09-19T11:22:02.126Z,58.23
2018-09-19T11:23:11.995Z,56.91
2018-09-19T11:24:22.137Z,55.08
2018-09-19T11:25:32.003Z,57.78
2018-09-19T11:26:42.146Z,56.24
2018-09-19T11:27:52.303Z,55.08
2018-09-19T11:29:02.491Z,56.46
2018-09-19T11:30:12.362Z,55.2
2018-09-19T11:31:22.508Z,54.82
2018-09-19T11:32:32.657Z,54.91
2018-09-19T11:33:42.684Z,54.91
2018-09-19T11:34:52.956Z,54.65
2018-09-19T11:36:03.109Z,54.07
2018-09-19T11:37:12.977Z,54.27
2018-09-19T11:38:22.574Z,53.95
2018-09-19T11:39:32.444Z,53.27
2018-09-19T11:40:42.317Z,54.27
2018-09-19T11:41:52.192Z,54.65
2018-09-19T11:43:02.068Z,54.27
2018-09-19T11:44:11.995Z,52.84
2018-09-19T11:45:21.866Z,52.94
2018-09-19T11:46:31.737Z,51.65
2018-09-19T11:47:41.612Z,52.91
2018-09-19T11:48:51.773Z,53.11
2018-09-19T11:50:01.653Z,52.81
2018-09-19T11:51:11.804Z,52.45
2018-09-19T11:52:21.955Z,51.39
2018-09-19T11:53:32.160Z,51.56
2018-09-19T11:54:42.305Z,51.29
2018-09-19T11:55:52.181Z,51.68
2018-09-19T11:57:02.049Z,49.97
2018-09-19T11:58:11.764Z,50.93
2018-09-19T11:59:21.920Z,50.55
2018-09-19T12:00:32.070Z,49.41
2018-09-19T12:01:42.217Z,50.55
2018-09-19T12:02:51.825Z,50.84
2018-09-19T12:04:01.978Z,50.45
2018-09-19T12:05:12.178Z,49.39
2018-09-19T12:06:22.326Z,49.29
2018-09-19T12:07:32.474Z,49
2018-09-19T12:08:42.627Z,49.77
2018-09-19T12:09:52.779Z,48.9
2018-09-19T12:11:02.986Z,49.22
2018-09-19T12:12:13.133Z,48.81
2018-09-19T12:13:23.279Z,48.74
2018-09-19T12:14:33.432Z,48.76
2018-09-19T12:15:43.300Z,48.66
2018-09-19T12:16:52.945Z,50.16
2018-09-19T12:18:02.822Z,51.1
2018-09-19T12:19:12.970Z,50.31
2018-09-19T12:20:23.200Z,50.59
2018-09-19T12:21:33.350Z,49.17
2018-09-19T12:22:43.274Z,49.29
2018-09-19T12:23:53.420Z,47.58
2018-09-19T12:25:03.293Z,47.38
2018-09-19T12:26:13.538Z,47.58
2018-09-19T12:27:24.034Z,47.38
2018-09-19T12:28:34.245Z,47.11
2018-09-19T12:29:44.395Z,46.63
2018-09-19T12:30:54.546Z,45.78
2018-09-19T12:32:04.744Z,45.42
2018-09-19T12:33:14.951Z,44.93
2018-09-19T12:34:25.176Z,44.06
2018-09-19T12:35:35.333Z,44.84
2018-09-19T12:36:45.205Z,44.64
2018-09-19T12:37:55.362Z,43.6
2018-09-19T12:39:05.232Z,42.72
2018-09-19T12:40:15.437Z,42.44
2018-09-19T12:41:24.764Z,44.67
2018-09-19T12:42:34.910Z,42.82
2018-09-19T12:43:45.057Z,42.46
2018-09-19T12:44:55.203Z,41.49
2018-09-19T12:46:05.226Z,42.48
2018-09-19T12:47:15.099Z,40.92
2018-09-19T12:48:25.287Z,40.91
2018-09-19T12:49:35.446Z,40.71
2018-09-19T12:50:45.321Z,41.95
2018-09-19T12:51:55.259Z,40.79
2018-09-19T12:53:05.436Z,41.56
2018-09-19T12:54:15.398Z,40.89
2018-09-19T12:55:25.565Z,41.55
2018-09-19T12:56:35.445Z,41.16
2018-09-19T12:57:45.381Z,41.06
2018-09-19T12:58:55.541Z,41
2018-09-19T13:00:04.873Z,41.55
2018-09-19T13:01:14.750Z,43.37
2018-09-19T13:02:24.905Z,42.66
2018-09-19T13:03:35.100Z,43.61
2018-09-19T13:04:45.251Z,45.23
2018-09-19T13:05:55.451Z,44.75
2018-09-19T13:07:04.784Z,45.14
2018-09-19T13:08:14.933Z,45.89
2018-09-19T13:09:24.528Z,46.83
2018-09-19T13:10:34.402Z,47.31
2018-09-19T13:11:44.274Z,47.09
2018-09-19T13:12:53.874Z,48.06
2018-09-19T13:14:03.745Z,48.54
2018-09-19T13:15:13.891Z,47.29
2018-09-19T13:16:24.035Z,48.23
2018-09-19T13:17:34.186Z,49.1
2018-09-19T13:18:44.333Z,49.27
2018-09-19T13:19:54.478Z,48.88
2018-09-19T13:21:04.400Z,48.49
2018-09-19T13:22:13.992Z,49.37
2018-09-19T13:23:24.132Z,50.32
2018-09-19T13:24:33.449Z,48.59
2018-09-19T13:25:43.586Z,48.01
2018-09-19T13:26:53.176Z,48.21
2018-09-19T13:28:03.053Z,49.43
2018-09-19T13:29:13.199Z,49.34
2018-09-19T13:30:23.069Z,48.95
2018-09-19T13:31:33.216Z,49.34
2018-09-19T13:32:43.135Z,49.05
2018-09-19T13:33:53.014Z,50.21
2018-09-19T13:35:03.161Z,49.91
2018-09-19T13:36:13.053Z,49.43
2018-09-19T13:37:22.922Z,49.41
2018-09-19T13:38:33.072Z,48.44
2018-09-19T13:39:42.939Z,48.83
2018-09-19T13:40:53.091Z,49.51
2018-09-19T13:42:03.229Z,49.63
2018-09-19T13:43:13.094Z,49.12
2018-09-19T13:44:23.283Z,49.22
2018-09-19T13:45:33.427Z,48.44
2018-09-19T13:46:43.566Z,47.97
2018-09-19T13:47:53.707Z,48.35
2018-09-19T13:49:03.851Z,48.35
2018-09-19T13:50:13.776Z,48.16
2018-09-19T13:51:23.918Z,48.93
2018-09-19T13:52:33.783Z,46.71
2018-09-19T13:53:43.921Z,47.49
2018-09-19T13:54:54.061Z,47.87
2018-09-19T13:56:03.701Z,48.35
2018-09-19T13:57:13.293Z,48.13
2018-09-19T13:58:23.434Z,48.83
2018-09-19T13:59:33.311Z,49.32
2018-09-19T14:00:43.187Z,48.35
2018-09-19T14:01:53.103Z,45.56
2018-09-19T14:03:02.978Z,44.59
2018-09-19T14:04:12.900Z,45.58
2018-09-19T14:05:22.963Z,45.29
2018-09-19T14:06:33.107Z,44.4
2018-09-19T14:07:43.352Z,43.63
2018-09-19T14:08:53.505Z,43.24
2018-09-19T14:10:03.374Z,42.57
2018-09-19T14:11:13.250Z,43.05
2018-09-19T14:12:23.585Z,43.82
2018-09-19T14:13:33.814Z,43.82
2018-09-19T14:14:43.696Z,44.02
2018-09-19T14:15:53.837Z,44.02
2018-09-19T14:17:03.706Z,45.84
2018-09-19T14:18:13.574Z,52.69
2018-09-19T14:19:23.539Z,56.05
2018-09-19T14:20:33.685Z,57.5
2018-09-19T14:21:43.280Z,58.27
2018-09-19T14:22:53.423Z,59.14
2018-09-19T14:24:03.571Z,58.27
2018-09-19T14:25:13.485Z,57.79
2018-09-19T14:26:23.364Z,58.17
2018-09-19T14:27:33.229Z,57.98
2018-09-19T14:28:43.104Z,57.98
2018-09-19T14:29:52.975Z,59.14
2018-09-19T14:31:03.123Z,59.43
2018-09-19T14:32:13.327Z,59.62
2018-09-19T14:33:23.193Z,59.59
2018-09-19T14:34:33.378Z,59.62
2018-09-19T14:35:43.761Z,59.97
2018-09-19T14:36:54.580Z,60.84
2018-09-19T14:38:04.448Z,61.04
2018-09-19T14:39:14.587Z,60.46
2018-09-19T14:40:24.181Z,60.68
2018-09-19T14:41:34.328Z,60.65
2018-09-19T14:42:44.517Z,61.07
2018-09-19T14:43:54.656Z,61.04
2018-09-19T14:45:04.520Z,60.87
2018-09-19T14:46:14.113Z,60.84
2018-09-19T14:47:23.980Z,61.32
2018-09-19T14:48:34.497Z,60.17
2018-09-19T14:49:44.658Z,60.55
2018-09-19T14:50:54.809Z,59.78
2018-09-19T14:52:04.950Z,59.11
2018-09-19T14:53:14.820Z,58.44
2018-09-19T14:54:24.997Z,59.2
2018-09-19T14:55:35.023Z,59.4
2018-09-19T14:56:44.618Z,60.07
2018-09-19T14:57:54.766Z,60.55
2018-09-19T14:59:04.628Z,60.17
2018-09-19T15:00:14.532Z,60.94
2018-09-19T15:01:24.592Z,60.42
2018-09-19T15:02:34.461Z,61.19
2018-09-19T15:03:44.610Z,60.14
2018-09-19T15:04:54.480Z,61
2018-09-19T15:06:04.436Z,61.29
2018-09-19T15:07:14.298Z,60.62
2018-09-19T15:08:24.166Z,60.42